sensor_id;sensor_type;location;lat;lon;timestamp;P1;durP1;ratioP1;P2;durP2;ratioP2
50249;SDS011;36133;42.522;27.456;2022-08-21T00:02:16;14.75;;;13.15;;
50249;SDS011;36133;42.522;27.456;2022-08-21T00:04:43;18.27;;;14.23;;
50249;SDS011;36133;42.522;27.456;2022-08-21T00:07:09;15.13;;;13.63;;
50249;SDS011;36133;42.522;27.456;2022-08-21T00:09:35;16.40;;;13.40;;
50249;SDS011;36133;42.522;27.456;2022-08-21T00:12:01;17.98;;;13.38;;
50249;SDS011;36133;42.522;27.456;2022-08-21T00:14:27;17.13;;;14.65;;
50249;SDS011;36133;42.522;27.456;2022-08-21T00:16:52;21.60;;;14.77;;
50249;SDS011;36133;42.522;27.456;2022-08-21T00:19:18;17.02;;;14.98;;
50249;SDS011;36133;42.522;27.456;2022-08-21T00:21:44;18.08;;;15.50;;
50249;SDS011;36133;42.522;27.456;2022-08-21T00:24:09;21.58;;;15.85;;
50249;SDS011;36133;42.522;27.456;2022-08-21T00:26:35;18.75;;;15.23;;
50249;SDS011;36133;42.522;27.456;2022-08-21T00:29:00;17.85;;;14.73;;
50249;SDS011;36133;42.522;27.456;2022-08-21T00:31:26;17.67;;;14.90;;
50249;SDS011;36133;42.522;27.456;2022-08-21T00:33:52;18.02;;;14.73;;
50249;SDS011;36133;42.522;27.456;2022-08-21T00:36:17;16.45;;;14.63;;
50249;SDS011;36133;42.522;27.456;2022-08-21T00:38:43;20.88;;;14.90;;
50249;SDS011;36133;42.522;27.456;2022-08-21T00:41:09;16.85;;;14.45;;
50249;SDS011;36133;42.522;27.456;2022-08-21T00:43:36;15.60;;;13.98;;
50249;SDS011;36133;42.522;27.456;2022-08-21T00:46:03;20.05;;;15.40;;
50249;SDS011;36133;42.522;27.456;2022-08-21T00:48:31;17.63;;;14.50;;
50249;SDS011;36133;42.522;27.456;2022-08-21T00:51:05;21.15;;;15.10;;
50249;SDS011;36133;42.522;27.456;2022-08-21T00:53:47;17.23;;;15.25;;
50249;SDS011;36133;42.522;27.456;2022-08-21T00:56:17;18.45;;;14.98;;
50249;SDS011;36133;42.522;27.456;2022-08-21T00:58:44;18.30;;;15.07;;
50249;SDS011;36133;42.522;27.456;2022-08-21T01:01:10;17.98;;;15.52;;
50249;SDS011;36133;42.522;27.456;2022-08-21T01:03:36;22.38;;;14.98;;
50249;SDS011;36133;42.522;27.456;2022-08-21T01:06:04;17.25;;;14.50;;
50249;SDS011;36133;42.522;27.456;2022-08-21T01:08:31;18.83;;;15.70;;
50249;SDS011;36133;42.522;27.456;2022-08-21T01:10:57;18.92;;;15.68;;
50249;SDS011;36133;42.522;27.456;2022-08-21T01:13:24;17.83;;;15.00;;
50249;SDS011;36133;42.522;27.456;2022-08-21T01:15:53;17.13;;;14.60;;
50249;SDS011;36133;42.522;27.456;2022-08-21T01:18:20;17.98;;;15.13;;
50249;SDS011;36133;42.522;27.456;2022-08-21T01:23:31;18.50;;;14.88;;
50249;SDS011;36133;42.522;27.456;2022-08-21T01:25:57;22.38;;;15.85;;
50249;SDS011;36133;42.522;27.456;2022-08-21T01:28:22;20.70;;;15.88;;
50249;SDS011;36133;42.522;27.456;2022-08-21T01:30:50;19.35;;;15.63;;
50249;SDS011;36133;42.522;27.456;2022-08-21T01:33:18;18.33;;;15.50;;
50249;SDS011;36133;42.522;27.456;2022-08-21T01:35:45;20.10;;;14.52;;
50249;SDS011;36133;42.522;27.456;2022-08-21T01:38:10;19.00;;;15.43;;
50249;SDS011;36133;42.522;27.456;2022-08-21T01:40:36;18.95;;;15.55;;
50249;SDS011;36133;42.522;27.456;2022-08-21T01:43:02;17.20;;;14.52;;
50249;SDS011;36133;42.522;27.456;2022-08-21T01:45:28;16.52;;;14.63;;
50249;SDS011;36133;42.522;27.456;2022-08-21T01:47:54;17.92;;;14.88;;
50249;SDS011;36133;42.522;27.456;2022-08-21T01:50:20;16.70;;;14.82;;
50249;SDS011;36133;42.522;27.456;2022-08-21T01:52:46;19.08;;;16.30;;
50249;SDS011;36133;42.522;27.456;2022-08-21T01:55:12;19.67;;;16.58;;
50249;SDS011;36133;42.522;27.456;2022-08-21T01:57:40;20.75;;;16.63;;
50249;SDS011;36133;42.522;27.456;2022-08-21T02:00:07;19.08;;;17.08;;
50249;SDS011;36133;42.522;27.456;2022-08-21T02:02:36;19.02;;;17.02;;
50249;SDS011;36133;42.522;27.456;2022-08-21T02:05:02;20.90;;;17.83;;
50249;SDS011;36133;42.522;27.456;2022-08-21T02:07:35;22.60;;;17.52;;
50249;SDS011;36133;42.522;27.456;2022-08-21T02:10:11;21.92;;;17.90;;
50249;SDS011;36133;42.522;27.456;2022-08-21T02:12:39;20.02;;;17.50;;
50249;SDS011;36133;42.522;27.456;2022-08-21T02:15:05;21.55;;;17.52;;
50249;SDS011;36133;42.522;27.456;2022-08-21T02:17:39;19.20;;;16.65;;
50249;SDS011;36133;42.522;27.456;2022-08-21T02:20:11;19.92;;;17.70;;
50249;SDS011;36133;42.522;27.456;2022-08-21T02:22:41;20.42;;;18.08;;
50249;SDS011;36133;42.522;27.456;2022-08-21T02:25:07;19.95;;;16.90;;
50249;SDS011;36133;42.522;27.456;2022-08-21T02:27:43;20.48;;;17.38;;
50249;SDS011;36133;42.522;27.456;2022-08-21T02:30:17;21.13;;;17.30;;
50249;SDS011;36133;42.522;27.456;2022-08-21T02:32:54;20.42;;;18.15;;
50249;SDS011;36133;42.522;27.456;2022-08-21T02:35:21;19.95;;;17.67;;
50249;SDS011;36133;42.522;27.456;2022-08-21T02:37:48;19.85;;;17.70;;
50249;SDS011;36133;42.522;27.456;2022-08-21T02:40:17;21.50;;;19.20;;
50249;SDS011;36133;42.522;27.456;2022-08-21T02:42:46;22.83;;;18.30;;
50249;SDS011;36133;42.522;27.456;2022-08-21T02:45:12;19.80;;;17.40;;
50249;SDS011;36133;42.522;27.456;2022-08-21T02:47:39;20.65;;;17.02;;
50249;SDS011;36133;42.522;27.456;2022-08-21T02:50:06;19.02;;;16.70;;
50249;SDS011;36133;42.522;27.456;2022-08-21T02:52:32;20.88;;;17.27;;
50249;SDS011;36133;42.522;27.456;2022-08-21T02:54:58;23.00;;;17.90;;
50249;SDS011;36133;42.522;27.456;2022-08-21T02:57:24;20.70;;;18.48;;
50249;SDS011;36133;42.522;27.456;2022-08-21T02:59:50;20.55;;;18.35;;
50249;SDS011;36133;42.522;27.456;2022-08-21T03:02:15;22.27;;;18.17;;
50249;SDS011;36133;42.522;27.456;2022-08-21T03:04:41;23.17;;;18.42;;
50249;SDS011;36133;42.522;27.456;2022-08-21T03:07:06;20.30;;;17.75;;
50249;SDS011;36133;42.522;27.456;2022-08-21T03:09:32;22.60;;;18.67;;
50249;SDS011;36133;42.522;27.456;2022-08-21T03:11:57;20.48;;;18.23;;
50249;SDS011;36133;42.522;27.456;2022-08-21T03:14:23;25.50;;;19.02;;
50249;SDS011;36133;42.522;27.456;2022-08-21T03:16:49;23.20;;;17.88;;
50249;SDS011;36133;42.522;27.456;2022-08-21T03:19:14;19.85;;;17.45;;
50249;SDS011;36133;42.522;27.456;2022-08-21T03:21:40;21.70;;;18.10;;
50249;SDS011;36133;42.522;27.456;2022-08-21T03:24:06;24.15;;;17.58;;
50249;SDS011;36133;42.522;27.456;2022-08-21T03:26:32;21.10;;;17.98;;
50249;SDS011;36133;42.522;27.456;2022-08-21T03:28:58;23.95;;;18.60;;
50249;SDS011;36133;42.522;27.456;2022-08-21T03:31:24;19.60;;;17.50;;
50249;SDS011;36133;42.522;27.456;2022-08-21T03:33:53;19.67;;;17.60;;
50249;SDS011;36133;42.522;27.456;2022-08-21T03:36:20;21.20;;;18.20;;
50249;SDS011;36133;42.522;27.456;2022-08-21T03:38:46;22.00;;;17.50;;
50249;SDS011;36133;42.522;27.456;2022-08-21T03:41:11;21.35;;;18.98;;
50249;SDS011;36133;42.522;27.456;2022-08-21T03:43:37;21.08;;;18.35;;
50249;SDS011;36133;42.522;27.456;2022-08-21T03:46:03;23.65;;;17.88;;
50249;SDS011;36133;42.522;27.456;2022-08-21T03:48:31;21.95;;;17.58;;
50249;SDS011;36133;42.522;27.456;2022-08-21T03:50:57;22.95;;;17.20;;
50249;SDS011;36133;42.522;27.456;2022-08-21T03:53:23;22.77;;;17.73;;
50249;SDS011;36133;42.522;27.456;2022-08-21T03:55:49;24.15;;;17.83;;
50249;SDS011;36133;42.522;27.456;2022-08-21T03:58:17;21.70;;;17.23;;
50249;SDS011;36133;42.522;27.456;2022-08-21T04:00:46;20.27;;;16.75;;
50249;SDS011;36133;42.522;27.456;2022-08-21T04:03:15;20.17;;;16.77;;
50249;SDS011;36133;42.522;27.456;2022-08-21T04:05:41;22.55;;;17.08;;
50249;SDS011;36133;42.522;27.456;2022-08-21T04:08:07;21.23;;;16.42;;
50249;SDS011;36133;42.522;27.456;2022-08-21T04:10:33;18.80;;;16.77;;
50249;SDS011;36133;42.522;27.456;2022-08-21T04:13:00;19.10;;;16.38;;
50249;SDS011;36133;42.522;27.456;2022-08-21T04:15:27;20.30;;;15.32;;
50249;SDS011;36133;42.522;27.456;2022-08-21T04:17:53;17.17;;;14.75;;
50249;SDS011;36133;42.522;27.456;2022-08-21T04:20:20;15.25;;;13.57;;
50249;SDS011;36133;42.522;27.456;2022-08-21T04:22:47;14.52;;;12.73;;
50249;SDS011;36133;42.522;27.456;2022-08-21T04:25:14;16.02;;;12.10;;
50249;SDS011;36133;42.522;27.456;2022-08-21T04:27:40;15.95;;;12.77;;
50249;SDS011;36133;42.522;27.456;2022-08-21T04:30:07;16.48;;;12.10;;
50249;SDS011;36133;42.522;27.456;2022-08-21T04:32:34;14.50;;;11.48;;
50249;SDS011;36133;42.522;27.456;2022-08-21T04:35:04;15.18;;;11.90;;
50249;SDS011;36133;42.522;27.456;2022-08-21T04:37:32;15.15;;;11.45;;
50249;SDS011;36133;42.522;27.456;2022-08-21T04:39:58;16.08;;;10.85;;
50249;SDS011;36133;42.522;27.456;2022-08-21T04:42:24;12.88;;;10.93;;
50249;SDS011;36133;42.522;27.456;2022-08-21T04:44:51;13.02;;;10.65;;
50249;SDS011;36133;42.522;27.456;2022-08-21T04:47:17;16.02;;;10.40;;
50249;SDS011;36133;42.522;27.456;2022-08-21T04:49:43;14.95;;;10.13;;
50249;SDS011;36133;42.522;27.456;2022-08-21T04:52:09;13.85;;;9.55;;
50249;SDS011;36133;42.522;27.456;2022-08-21T04:54:36;10.50;;;9.40;;
50249;SDS011;36133;42.522;27.456;2022-08-21T04:57:04;10.07;;;8.80;;
50249;SDS011;36133;42.522;27.456;2022-08-21T04:59:36;10.05;;;9.05;;
50249;SDS011;36133;42.522;27.456;2022-08-21T05:02:07;11.98;;;8.27;;
50249;SDS011;36133;42.522;27.456;2022-08-21T05:04:36;9.90;;;8.57;;
50249;SDS011;36133;42.522;27.456;2022-08-21T05:07:05;10.25;;;8.15;;
50249;SDS011;36133;42.522;27.456;2022-08-21T05:09:35;9.65;;;8.10;;
50249;SDS011;36133;42.522;27.456;2022-08-21T05:12:03;11.30;;;8.57;;
50249;SDS011;36133;42.522;27.456;2022-08-21T05:14:29;10.82;;;8.25;;
50249;SDS011;36133;42.522;27.456;2022-08-21T05:16:55;10.15;;;7.78;;
50249;SDS011;36133;42.522;27.456;2022-08-21T05:19:21;12.77;;;8.55;;
50249;SDS011;36133;42.522;27.456;2022-08-21T05:21:46;11.18;;;9.98;;
50249;SDS011;36133;42.522;27.456;2022-08-21T05:24:13;11.90;;;10.30;;
50249;SDS011;36133;42.522;27.456;2022-08-21T05:26:39;11.63;;;10.13;;
50249;SDS011;36133;42.522;27.456;2022-08-21T05:29:05;11.32;;;9.60;;
50249;SDS011;36133;42.522;27.456;2022-08-21T05:31:31;12.73;;;10.02;;
50249;SDS011;36133;42.522;27.456;2022-08-21T05:33:57;13.32;;;9.85;;
50249;SDS011;36133;42.522;27.456;2022-08-21T05:36:22;9.35;;;8.00;;
50249;SDS011;36133;42.522;27.456;2022-08-21T05:38:48;10.57;;;8.20;;
50249;SDS011;36133;42.522;27.456;2022-08-21T05:41:14;15.48;;;10.00;;
50249;SDS011;36133;42.522;27.456;2022-08-21T05:43:39;9.30;;;7.50;;
50249;SDS011;36133;42.522;27.456;2022-08-21T05:46:05;11.05;;;8.80;;
50249;SDS011;36133;42.522;27.456;2022-08-21T05:48:33;13.00;;;8.70;;
50249;SDS011;36133;42.522;27.456;2022-08-21T05:51:10;11.98;;;7.68;;
50249;SDS011;36133;42.522;27.456;2022-08-21T05:53:39;8.02;;;6.88;;
50249;SDS011;36133;42.522;27.456;2022-08-21T05:56:07;11.43;;;9.60;;
50249;SDS011;36133;42.522;27.456;2022-08-21T05:58:33;15.45;;;10.45;;
50249;SDS011;36133;42.522;27.456;2022-08-21T06:01:00;11.30;;;10.05;;
50249;SDS011;36133;42.522;27.456;2022-08-21T06:03:28;11.98;;;10.32;;
50249;SDS011;36133;42.522;27.456;2022-08-21T06:05:56;15.38;;;10.70;;
50249;SDS011;36133;42.522;27.456;2022-08-21T06:08:22;13.25;;;11.23;;
50249;SDS011;36133;42.522;27.456;2022-08-21T06:10:49;12.05;;;10.07;;
50249;SDS011;36133;42.522;27.456;2022-08-21T06:13:17;13.93;;;10.23;;
50249;SDS011;36133;42.522;27.456;2022-08-21T06:15:44;10.10;;;8.68;;
50249;SDS011;36133;42.522;27.456;2022-08-21T06:18:13;9.80;;;7.90;;
50249;SDS011;36133;42.522;27.456;2022-08-21T06:20:41;8.45;;;6.53;;
50249;SDS011;36133;42.522;27.456;2022-08-21T06:23:07;9.02;;;6.82;;
50249;SDS011;36133;42.522;27.456;2022-08-21T06:25:33;6.97;;;6.28;;
50249;SDS011;36133;42.522;27.456;2022-08-21T06:28:00;8.50;;;6.50;;
50249;SDS011;36133;42.522;27.456;2022-08-21T06:30:33;10.07;;;6.15;;
50249;SDS011;36133;42.522;27.456;2022-08-21T06:33:01;7.25;;;6.32;;
50249;SDS011;36133;42.522;27.456;2022-08-21T06:35:27;8.32;;;6.25;;
50249;SDS011;36133;42.522;27.456;2022-08-21T06:37:54;9.13;;;5.75;;
50249;SDS011;36133;42.522;27.456;2022-08-21T06:40:22;7.85;;;5.65;;
50249;SDS011;36133;42.522;27.456;2022-08-21T06:42:51;8.32;;;5.82;;
50249;SDS011;36133;42.522;27.456;2022-08-21T06:45:28;7.10;;;5.95;;
50249;SDS011;36133;42.522;27.456;2022-08-21T06:47:57;6.63;;;5.95;;
50249;SDS011;36133;42.522;27.456;2022-08-21T06:50:22;10.68;;;5.97;;
50249;SDS011;36133;42.522;27.456;2022-08-21T06:52:48;6.05;;;5.43;;
50249;SDS011;36133;42.522;27.456;2022-08-21T06:55:14;6.32;;;5.25;;
50249;SDS011;36133;42.522;27.456;2022-08-21T06:57:39;14.20;;;5.97;;
50249;SDS011;36133;42.522;27.456;2022-08-21T07:00:05;7.90;;;5.45;;
50249;SDS011;36133;42.522;27.456;2022-08-21T07:02:35;7.35;;;5.88;;
50249;SDS011;36133;42.522;27.456;2022-08-21T07:05:04;10.32;;;6.22;;
50249;SDS011;36133;42.522;27.456;2022-08-21T07:07:33;6.40;;;5.13;;
50249;SDS011;36133;42.522;27.456;2022-08-21T07:09:59;8.52;;;5.70;;
50249;SDS011;36133;42.522;27.456;2022-08-21T07:12:24;6.53;;;5.68;;
50249;SDS011;36133;42.522;27.456;2022-08-21T07:14:51;8.80;;;5.43;;
50249;SDS011;36133;42.522;27.456;2022-08-21T07:17:19;8.40;;;6.05;;
50249;SDS011;36133;42.522;27.456;2022-08-21T07:19:45;5.93;;;5.32;;
50249;SDS011;36133;42.522;27.456;2022-08-21T07:22:20;6.93;;;6.22;;
50249;SDS011;36133;42.522;27.456;2022-08-21T07:24:51;6.65;;;5.47;;
50249;SDS011;36133;42.522;27.456;2022-08-21T07:27:35;6.32;;;5.72;;
50249;SDS011;36133;42.522;27.456;2022-08-21T07:30:03;6.70;;;5.20;;
50249;SDS011;36133;42.522;27.456;2022-08-21T07:32:32;10.70;;;5.93;;
50249;SDS011;36133;42.522;27.456;2022-08-21T07:34:58;5.82;;;5.32;;
50249;SDS011;36133;42.522;27.456;2022-08-21T07:37:23;14.02;;;5.70;;
50249;SDS011;36133;42.522;27.456;2022-08-21T07:39:49;11.15;;;5.25;;
50249;SDS011;36133;42.522;27.456;2022-08-21T07:42:16;6.15;;;5.30;;
50249;SDS011;36133;42.522;27.456;2022-08-21T07:44:45;6.65;;;5.15;;
50249;SDS011;36133;42.522;27.456;2022-08-21T07:47:13;6.47;;;5.65;;
50249;SDS011;36133;42.522;27.456;2022-08-21T07:49:41;7.05;;;5.35;;
50249;SDS011;36133;42.522;27.456;2022-08-21T07:52:07;7.40;;;5.65;;
50249;SDS011;36133;42.522;27.456;2022-08-21T07:54:32;10.07;;;5.25;;
50249;SDS011;36133;42.522;27.456;2022-08-21T07:56:58;6.28;;;5.05;;
50249;SDS011;36133;42.522;27.456;2022-08-21T07:59:27;7.18;;;5.22;;
50249;SDS011;36133;42.522;27.456;2022-08-21T08:01:53;7.35;;;5.30;;
50249;SDS011;36133;42.522;27.456;2022-08-21T08:04:19;6.03;;;5.43;;
50249;SDS011;36133;42.522;27.456;2022-08-21T08:06:44;6.82;;;5.80;;
50249;SDS011;36133;42.522;27.456;2022-08-21T08:09:13;7.38;;;5.82;;
50249;SDS011;36133;42.522;27.456;2022-08-21T08:11:41;8.25;;;5.55;;
50249;SDS011;36133;42.522;27.456;2022-08-21T08:14:19;7.63;;;5.65;;
50249;SDS011;36133;42.522;27.456;2022-08-21T08:16:57;6.40;;;5.50;;
50249;SDS011;36133;42.522;27.456;2022-08-21T08:19:22;5.78;;;5.28;;
50249;SDS011;36133;42.522;27.456;2022-08-21T08:21:51;7.38;;;5.50;;
50249;SDS011;36133;42.522;27.456;2022-08-21T08:24:20;7.32;;;5.30;;
50249;SDS011;36133;42.522;27.456;2022-08-21T08:26:52;7.97;;;5.68;;
50249;SDS011;36133;42.522;27.456;2022-08-21T08:29:19;7.55;;;5.65;;
50249;SDS011;36133;42.522;27.456;2022-08-21T08:31:54;12.20;;;6.32;;
50249;SDS011;36133;42.522;27.456;2022-08-21T08:34:31;8.13;;;5.78;;
50249;SDS011;36133;42.522;27.456;2022-08-21T08:36:59;6.30;;;5.70;;
50249;SDS011;36133;42.522;27.456;2022-08-21T08:39:28;7.85;;;5.88;;
50249;SDS011;36133;42.522;27.456;2022-08-21T08:45:05;7.05;;;6.35;;
50249;SDS011;36133;42.522;27.456;2022-08-21T08:47:47;7.30;;;6.10;;
50249;SDS011;36133;42.522;27.456;2022-08-21T08:50:19;7.65;;;6.22;;
50249;SDS011;36133;42.522;27.456;2022-08-21T08:52:54;7.17;;;5.97;;
50249;SDS011;36133;42.522;27.456;2022-08-21T08:55:40;7.90;;;6.07;;
50249;SDS011;36133;42.522;27.456;2022-08-21T08:58:09;10.25;;;6.60;;
50249;SDS011;36133;42.522;27.456;2022-08-21T09:00:42;6.57;;;6.03;;
50249;SDS011;36133;42.522;27.456;2022-08-21T09:03:12;11.60;;;6.07;;
50249;SDS011;36133;42.522;27.456;2022-08-21T09:11:06;6.10;;;5.50;;
50249;SDS011;36133;42.522;27.456;2022-08-21T09:14:04;6.97;;;5.80;;
50249;SDS011;36133;42.522;27.456;2022-08-21T09:16:44;7.97;;;5.93;;
50249;SDS011;36133;42.522;27.456;2022-08-21T09:22:12;8.75;;;6.55;;
50249;SDS011;36133;42.522;27.456;2022-08-21T09:25:07;7.53;;;5.85;;
50249;SDS011;36133;42.522;27.456;2022-08-21T09:27:51;9.55;;;5.95;;
50249;SDS011;36133;42.522;27.456;2022-08-21T09:30:17;12.07;;;6.47;;
50249;SDS011;36133;42.522;27.456;2022-08-21T09:32:44;10.57;;;7.05;;
50249;SDS011;36133;42.522;27.456;2022-08-21T09:35:14;8.68;;;6.38;;
50249;SDS011;36133;42.522;27.456;2022-08-21T09:37:47;11.90;;;6.25;;
50249;SDS011;36133;42.522;27.456;2022-08-21T09:40:39;9.05;;;6.88;;
50249;SDS011;36133;42.522;27.456;2022-08-21T09:43:16;8.32;;;6.53;;
50249;SDS011;36133;42.522;27.456;2022-08-21T09:45:44;9.70;;;6.28;;
50249;SDS011;36133;42.522;27.456;2022-08-21T09:48:21;11.40;;;6.60;;
50249;SDS011;36133;42.522;27.456;2022-08-21T09:50:51;7.60;;;5.95;;
50249;SDS011;36133;42.522;27.456;2022-08-21T09:53:22;10.05;;;6.95;;
50249;SDS011;36133;42.522;27.456;2022-08-21T09:58:41;7.07;;;5.10;;
50249;SDS011;36133;42.522;27.456;2022-08-21T10:04:22;7.22;;;5.80;;
50249;SDS011;36133;42.522;27.456;2022-08-21T10:06:54;6.80;;;6.10;;
50249;SDS011;36133;42.522;27.456;2022-08-21T10:09:21;7.63;;;6.10;;
50249;SDS011;36133;42.522;27.456;2022-08-21T10:11:53;10.07;;;6.03;;
50249;SDS011;36133;42.522;27.456;2022-08-21T10:14:32;8.38;;;5.88;;
50249;SDS011;36133;42.522;27.456;2022-08-21T10:19:57;7.93;;;5.68;;
50249;SDS011;36133;42.522;27.456;2022-08-21T10:23:00;10.57;;;6.57;;
50249;SDS011;36133;42.522;27.456;2022-08-21T10:26:05;7.15;;;5.88;;
50249;SDS011;36133;42.522;27.456;2022-08-21T10:37:11;6.45;;;5.85;;
50249;SDS011;36133;42.522;27.456;2022-08-21T10:43:05;6.93;;;6.18;;
50249;SDS011;36133;42.522;27.456;2022-08-21T10:49:06;14.43;;;6.35;;
50249;SDS011;36133;42.522;27.456;2022-08-21T10:52:06;7.82;;;5.57;;
50249;SDS011;36133;42.522;27.456;2022-08-21T10:57:42;7.50;;;5.07;;
50249;SDS011;36133;42.522;27.456;2022-08-21T11:00:15;8.60;;;6.13;;
50249;SDS011;36133;42.522;27.456;2022-08-21T11:05:34;11.15;;;6.10;;
50249;SDS011;36133;42.522;27.456;2022-08-21T11:08:12;12.60;;;6.30;;
50249;SDS011;36133;42.522;27.456;2022-08-21T11:10:53;7.10;;;5.68;;
50249;SDS011;36133;42.522;27.456;2022-08-21T11:13:46;9.45;;;6.07;;
50249;SDS011;36133;42.522;27.456;2022-08-21T11:16:26;6.28;;;5.32;;
50249;SDS011;36133;42.522;27.456;2022-08-21T11:19:05;6.40;;;5.30;;
50249;SDS011;36133;42.522;27.456;2022-08-21T11:22:22;7.00;;;5.20;;
50249;SDS011;36133;42.522;27.456;2022-08-21T11:24:44;8.07;;;5.88;;
50249;SDS011;36133;42.522;27.456;2022-08-21T11:27:34;7.60;;;5.88;;
50249;SDS011;36133;42.522;27.456;2022-08-21T11:30:05;11.77;;;5.60;;
50249;SDS011;36133;42.522;27.456;2022-08-21T11:35:29;7.28;;;5.80;;
50249;SDS011;36133;42.522;27.456;2022-08-21T11:38:19;9.35;;;5.72;;
50249;SDS011;36133;42.522;27.456;2022-08-21T11:43:47;10.40;;;5.35;;
50249;SDS011;36133;42.522;27.456;2022-08-21T11:46:20;8.48;;;5.70;;
50249;SDS011;36133;42.522;27.456;2022-08-21T11:54:28;10.77;;;6.00;;
50249;SDS011;36133;42.522;27.456;2022-08-21T12:02:20;6.80;;;5.53;;
50249;SDS011;36133;42.522;27.456;2022-08-21T12:04:54;8.55;;;4.93;;
50249;SDS011;36133;42.522;27.456;2022-08-21T12:09:58;9.37;;;5.67;;
50249;SDS011;36133;42.522;27.456;2022-08-21T12:12:29;7.43;;;4.85;;
50249;SDS011;36133;42.522;27.456;2022-08-21T12:18:06;12.82;;;5.75;;
50249;SDS011;36133;42.522;27.456;2022-08-21T12:21:02;9.63;;;5.97;;
50249;SDS011;36133;42.522;27.456;2022-08-21T12:23:32;11.05;;;5.28;;
50249;SDS011;36133;42.522;27.456;2022-08-21T12:26:28;9.05;;;6.03;;
50249;SDS011;36133;42.522;27.456;2022-08-21T12:32:27;9.88;;;5.63;;
50249;SDS011;36133;42.522;27.456;2022-08-21T12:35:01;12.68;;;5.47;;
50249;SDS011;36133;42.522;27.456;2022-08-21T12:39:57;14.23;;;6.60;;
50249;SDS011;36133;42.522;27.456;2022-08-21T12:42:37;6.95;;;5.03;;
50249;SDS011;36133;42.522;27.456;2022-08-21T12:45:19;7.10;;;5.70;;
50249;SDS011;36133;42.522;27.456;2022-08-21T12:47:54;11.90;;;5.47;;
50249;SDS011;36133;42.522;27.456;2022-08-21T12:53:25;12.40;;;6.20;;
50249;SDS011;36133;42.522;27.456;2022-08-21T12:55:56;9.52;;;5.28;;
50249;SDS011;36133;42.522;27.456;2022-08-21T12:58:27;10.18;;;5.60;;
50249;SDS011;36133;42.522;27.456;2022-08-21T13:03:38;8.45;;;5.47;;
50249;SDS011;36133;42.522;27.456;2022-08-21T13:06:05;9.88;;;5.05;;
50249;SDS011;36133;42.522;27.456;2022-08-21T13:08:35;13.25;;;5.55;;
50249;SDS011;36133;42.522;27.456;2022-08-21T13:11:04;12.00;;;5.88;;
50249;SDS011;36133;42.522;27.456;2022-08-21T13:13:31;9.88;;;5.32;;
50249;SDS011;36133;42.522;27.456;2022-08-21T13:15:58;7.28;;;5.70;;
50249;SDS011;36133;42.522;27.456;2022-08-21T13:18:29;12.30;;;5.70;;
50249;SDS011;36133;42.522;27.456;2022-08-21T13:21:57;11.35;;;6.22;;
50249;SDS011;36133;42.522;27.456;2022-08-21T13:24:06;7.93;;;5.47;;
50249;SDS011;36133;42.522;27.456;2022-08-21T13:26:43;10.10;;;6.28;;
50249;SDS011;36133;42.522;27.456;2022-08-21T13:29:23;14.38;;;6.43;;
50249;SDS011;36133;42.522;27.456;2022-08-21T13:31:57;14.68;;;5.88;;
50249;SDS011;36133;42.522;27.456;2022-08-21T13:34:26;12.52;;;6.07;;
50249;SDS011;36133;42.522;27.456;2022-08-21T13:36:59;10.02;;;6.53;;
50249;SDS011;36133;42.522;27.456;2022-08-21T13:39:28;8.82;;;6.65;;
50249;SDS011;36133;42.522;27.456;2022-08-21T13:41:58;11.30;;;7.00;;
50249;SDS011;36133;42.522;27.456;2022-08-21T13:44:34;11.30;;;6.70;;
50249;SDS011;36133;42.522;27.456;2022-08-21T13:47:05;10.38;;;6.57;;
50249;SDS011;36133;42.522;27.456;2022-08-21T13:49:39;10.10;;;6.40;;
50249;SDS011;36133;42.522;27.456;2022-08-21T13:52:14;15.43;;;7.10;;
50249;SDS011;36133;42.522;27.456;2022-08-21T13:55:06;15.00;;;6.68;;
50249;SDS011;36133;42.522;27.456;2022-08-21T13:57:37;13.65;;;6.93;;
50249;SDS011;36133;42.522;27.456;2022-08-21T14:02:49;14.30;;;6.32;;
50249;SDS011;36133;42.522;27.456;2022-08-21T14:05:36;9.25;;;6.03;;
50249;SDS011;36133;42.522;27.456;2022-08-21T14:08:10;12.85;;;6.00;;
50249;SDS011;36133;42.522;27.456;2022-08-21T14:10:47;12.93;;;6.53;;
50249;SDS011;36133;42.522;27.456;2022-08-21T14:13:38;15.93;;;6.07;;
50249;SDS011;36133;42.522;27.456;2022-08-21T14:18:47;9.00;;;6.20;;
50249;SDS011;36133;42.522;27.456;2022-08-21T14:21:41;11.32;;;6.72;;
50249;SDS011;36133;42.522;27.456;2022-08-21T14:24:31;14.73;;;6.93;;
50249;SDS011;36133;42.522;27.456;2022-08-21T14:27:05;11.53;;;6.80;;
50249;SDS011;36133;42.522;27.456;2022-08-21T14:29:36;17.02;;;7.07;;
50249;SDS011;36133;42.522;27.456;2022-08-21T14:32:47;12.13;;;7.00;;
50249;SDS011;36133;42.522;27.456;2022-08-21T14:35:03;14.95;;;6.68;;
50249;SDS011;36133;42.522;27.456;2022-08-21T14:37:29;13.65;;;6.88;;
50249;SDS011;36133;42.522;27.456;2022-08-21T14:39:58;14.10;;;6.70;;
50249;SDS011;36133;42.522;27.456;2022-08-21T14:42:24;23.15;;;7.57;;
50249;SDS011;36133;42.522;27.456;2022-08-21T14:44:52;14.38;;;7.57;;
50249;SDS011;36133;42.522;27.456;2022-08-21T14:47:32;16.52;;;8.70;;
50249;SDS011;36133;42.522;27.456;2022-08-21T14:49:58;13.23;;;8.15;;
50249;SDS011;36133;42.522;27.456;2022-08-21T14:52:24;17.88;;;9.48;;
50249;SDS011;36133;42.522;27.456;2022-08-21T14:54:49;12.98;;;8.60;;
50249;SDS011;36133;42.522;27.456;2022-08-21T14:57:15;16.55;;;9.88;;
50249;SDS011;36133;42.522;27.456;2022-08-21T14:59:41;19.85;;;9.45;;
50249;SDS011;36133;42.522;27.456;2022-08-21T15:02:08;17.05;;;9.80;;
50249;SDS011;36133;42.522;27.456;2022-08-21T15:04:34;19.02;;;9.75;;
50249;SDS011;36133;42.522;27.456;2022-08-21T15:07:00;16.35;;;10.32;;
50249;SDS011;36133;42.522;27.456;2022-08-21T15:09:29;17.13;;;10.55;;
50249;SDS011;36133;42.522;27.456;2022-08-21T15:11:55;17.42;;;10.07;;
50249;SDS011;36133;42.522;27.456;2022-08-21T15:14:24;15.80;;;10.25;;
50249;SDS011;36133;42.522;27.456;2022-08-21T15:16:52;23.63;;;11.18;;
50249;SDS011;36133;42.522;27.456;2022-08-21T15:19:18;16.95;;;10.85;;
50249;SDS011;36133;42.522;27.456;2022-08-21T15:21:43;17.85;;;11.00;;
50249;SDS011;36133;42.522;27.456;2022-08-21T15:24:09;20.77;;;10.88;;
50249;SDS011;36133;42.522;27.456;2022-08-21T15:26:37;19.23;;;11.95;;
50249;SDS011;36133;42.522;27.456;2022-08-21T15:29:04;17.75;;;11.23;;
50249;SDS011;36133;42.522;27.456;2022-08-21T15:31:36;14.43;;;11.27;;
50249;SDS011;36133;42.522;27.456;2022-08-21T15:34:17;20.13;;;12.20;;
50249;SDS011;36133;42.522;27.456;2022-08-21T15:36:43;24.15;;;11.70;;
50249;SDS011;36133;42.522;27.456;2022-08-21T15:39:09;17.40;;;11.90;;
50249;SDS011;36133;42.522;27.456;2022-08-21T15:41:45;18.65;;;11.63;;
50249;SDS011;36133;42.522;27.456;2022-08-21T15:44:14;18.48;;;11.50;;
50249;SDS011;36133;42.522;27.456;2022-08-21T15:46:45;15.80;;;11.15;;
50249;SDS011;36133;42.522;27.456;2022-08-21T15:49:13;18.17;;;11.25;;
50249;SDS011;36133;42.522;27.456;2022-08-21T15:51:42;18.55;;;12.30;;
50249;SDS011;36133;42.522;27.456;2022-08-21T15:54:07;17.88;;;12.57;;
50249;SDS011;36133;42.522;27.456;2022-08-21T15:56:34;18.55;;;11.88;;
50249;SDS011;36133;42.522;27.456;2022-08-21T15:59:10;21.90;;;12.45;;
50249;SDS011;36133;42.522;27.456;2022-08-21T16:01:39;18.30;;;12.05;;
50249;SDS011;36133;42.522;27.456;2022-08-21T16:04:08;16.45;;;11.25;;